RÉSULTATS    Foulées de Bussy - Édition du 28/05/2016


Vous pouvez changer la distance ici.

Vous pouvez changer la distance ici.

Classement PDF Général Classement PDF Alphabétique /results/<span class='glyphicon glyphicon-picture'></span> Classement Temps Réel - Temps Puce

469 participants - 130 Femmes - 339 Hommes
108 licenciés (23%) - 361 non-licenciés (77%)

Temps moyen : 00:50:34





Pos. Temps Nom - Prénom Club Dossard Catégorie km/h
251 00:50:26 SIMEON Fabien 268 SEM (83 / 123) 11.9
252 00:50:26 STAUB Jacques 448 V3M (10 / 21) 11.8
253 00:50:35 MEYNARD Rodrigue COR DAMMARTIN 467 V1M (76 / 113) 11.8
254 00:50:36 LAVOCAT Pascal 408 V1M (77 / 113) 11.8
255 00:50:39 NEIL Patrice 511 V1M (78 / 113) 11.8
256 00:50:41 ROUX Phaenicia S/L NOISIEL LOGNES ATHLETISME 286 SEF (10 / 44) 11.8
257 00:50:42 KERFERS Pauline US TORCY ATHLETISME 363 SEF (11 / 44) 11.8
258 00:50:45 FARGEOT Sebastien 182 SEM (84 / 123) 11.8
259 00:50:50 HOFFMANN Clara 25 V2F (9 / 22) 11.8
260 00:50:56 TREFLEZE Pascal 400 V2M (40 / 60) 11.7
261 00:51:01 GAILLARD CORVAGLIA Antonella S/L NOISIEL LOGNES ATHLETISME 288 V1F (14 / 51) 11.7
262 00:51:05 DIAZ Christophe 449 V1M (79 / 113) 11.7
263 00:51:17 THUILLIER Pierre 413 ESM (7 / 9) 11.7
264 00:51:19 FONTAINE Dominique PASS RUNNING FFA 2 V3M (11 / 21) 11.6
265 00:51:22 LEFEVRE Jean michel UA VILLENOY 463 V3M (12 / 21) 11.6
266 00:51:33 SILLAN Chantal BUSSY RUNNING 417 V2F (10 / 22) 11.6
267 00:51:35 TANKOVIC Jacques 471 V2M (41 / 60) 11.6
268 00:51:44 AMOZIGH Eric 9 V2M (42 / 60) 11.5
269 00:51:50 CHANGIVY Louis guy 151 V2M (43 / 60) 11.5
270 00:51:59 THUILLIER Dominique 412 V3M (13 / 21) 11.5
271 00:52:00 GIMENEZ Eric 185 V1M (80 / 113) 11.5
272 00:52:09 DEWAELE Oceane TORCY CLUB TRIATHLON 135 SEF (12 / 44) 11.5
273 00:52:11 MENDES Yves 187 V1M (81 / 113) 11.5
274 00:52:15 SINGKOUSON Thomas 68 V1M (82 / 113) 11.4
275 00:52:16 THIAULT Guillaume 154 SEM (85 / 123) 11.4